Flight Track Log - Related Links

Times and Time Zones

All times are in EDT time to prevent confusion due to time zone crossing. See the N960DL flight status page for this flight to view local times or setup timezone preferences in your user account.

Time Position Orientation Groundspeed Altitude Reporting Facility
EDT Latitude Longitude Course Direction KTS MPH feet Rate Location/Type
Sun 01:19:38 PM 33.6333 -84.4833 53° Northeast 191 220 2,500  Level Atlanta TRACON
Sun 01:20:38 PM 33.6000 -84.5667 244° Southwest 245 282 4,800 2,700 Climbing Atlanta TRACON
Sun 01:21:38 PM 33.5500 -84.6000 209° Southwest 268 308 7,900 1,686 Climbing Atlanta TRACON
Sun 01:22:00 PM 33.8133 -83.8725 54° Northeast  Level FlightAware Approximate
Sun 01:23:00 PM 33.8884 -83.7543 48° Northeast  Level FlightAware Approximate
Sun 01:23:43 PM 33.4047 -84.5789 173° South 274 315 10,000  Level Atlanta Center
Sun 01:24:00 PM 33.9657 -83.6381 53° Northeast  Level FlightAware Approximate
Sun 01:24:43 PM 33.3822 -84.4842 106° East 255 293 11,000  Level Atlanta Center
Sun 01:25:43 PM 33.3931 -84.3647 84° East 308 354 12,600 2,050 Climbing Atlanta Center
Sun 01:26:43 PM 33.4225 -84.2478 73° East 357 411 15,100 2,300 Climbing Atlanta Center
Sun 01:27:43 PM 33.5000 -84.1633 42° Northeast 349 402 17,200 1,700 Climbing Atlanta Center
Sun 01:28:43 PM 33.5814 -84.0836 39° Northeast 359 413 18,500 1,000 Climbing Atlanta Center
Sun 01:29:43 PM 33.6669 -83.9939 41° Northeast 391 450 19,200 800 Climbing Atlanta Center
Sun 01:30:43 PM 33.7608 -83.8989 40° Northeast 418 481 20,100 800 Climbing Atlanta Center
Sun 01:31:43 PM 33.8586 -83.7961 41° Northeast 449 517 20,800 1,000 Climbing Atlanta Center
Sun 01:32:43 PM 33.9564 -83.6781 45° Northeast 472 543 22,100 1,300 Climbing Atlanta Center
Sun 01:33:43 PM 34.0394 -83.5475 52° Northeast 490 564 23,400 1,150 Climbing Atlanta Center
Sun 01:34:43 PM 34.1244 -83.4114 53° Northeast 505 581 24,400 1,300 Climbing Atlanta Center
Sun 01:35:43 PM 34.2053 -83.2803 53° Northeast 505 581 26,000 1,250 Climbing Atlanta Center
Sun 01:36:43 PM 34.2817 -83.1564 53° Northeast 505 581 26,900 900 Climbing Atlanta Center
Sun 01:37:43 PM 34.3639 -83.0222 53° Northeast 505 581 27,800 1,008 Climbing Atlanta Center
Sun 01:38:42 PM 34.4506 -82.8875 52° Northeast 511 588 28,900 600 Climbing Atlanta Center
Sun 01:39:43 PM 34.5347 -82.7528 53° Northeast 506 582 29,000 50 Climbing Atlanta Center
Sun 01:40:43 PM 34.6103 -82.6153 56° Northeast 496 571 29,000  Level Atlanta Center
Sun 01:41:43 PM 34.6944 -82.4850 52° Northeast 491 565 29,000  Level Atlanta Center
Sun 01:42:43 PM 34.7842 -82.3417 53° Northeast 491 565 29,000  Level Atlanta Center
Sun 01:43:43 PM 34.8597 -82.2161 54° Northeast 496 571 29,000  Level Atlanta Center
Sun 01:44:43 PM 34.9514 -82.0722 52° Northeast 490 564 29,000  Level Atlanta Center
Sun 01:45:43 PM 35.0325 -81.9308 55° Northeast 490 564 29,000  Level Atlanta Center
Sun 01:46:43 PM 35.0992 -81.8072 57° Northeast 490 564 29,000  Level Atlanta Center
Sun 01:47:43 PM 35.1717 -81.6681 57° Northeast 495 570 29,000  Level Atlanta Center
Sun 01:48:43 PM 35.2481 -81.5261 57° Northeast 490 564 29,000  Level Atlanta Center
Sun 01:49:42 PM 35.3203 -81.3839 58° Northeast 490 564 29,000  Level Atlanta Center
Sun 01:50:43 PM 35.3942 -81.2414 58° Northeast 490 564 29,000  Level Atlanta Center
Sun 01:51:42 PM 35.4681 -81.0936 58° Northeast 496 571 29,000  Level Atlanta Center
Sun 01:52:43 PM 35.5436 -80.9478 57° Northeast 501 577 29,000  Level Atlanta Center
Sun 01:53:43 PM 35.6172 -80.8044 58° Northeast 501 577 29,000  Level Atlanta Center
Sun 01:54:43 PM 35.6925 -80.6611 57° Northeast 501 577 29,000  Level Atlanta Center
Sun 01:55:43 PM 35.7658 -80.5172 58° Northeast 506 582 29,000  Level Atlanta Center
Sun 01:56:43 PM 35.8408 -80.3756 57° Northeast 498 573 29,000  Level Atlanta Center
Sun 01:58:48 PM 36.0036 -80.0647 57° Northeast 489 563 29,000  Level Washington Center
Sun 01:59:48 PM 36.0756 -79.9250 57° Northeast 482 555 29,000  Level Washington Center
Sun 02:00:50 PM 36.1536 -79.7850 55° Northeast 482 555 29,000  Level Washington Center
Sun 02:01:48 PM 36.2336 -79.6425 55° Northeast 494 568 29,000  Level Washington Center
Sun 02:02:48 PM 36.3111 -79.5050 55° Northeast 494 568 29,000  Level Washington Center
Sun 02:03:49 PM 36.3753 -79.3919 55° Northeast 494 568 29,000  Level Washington Center
Sun 02:04:49 PM 36.4683 -79.2233 56° Northeast 494 568 29,000 50 Level Washington Center
Sun 02:05:50 PM 36.5386 -79.1025 54° Northeast 494 568 29,100 504 Climbing Washington Center
Sun 02:06:48 PM 36.6133 -78.9664 56° Northeast 479 551 30,000 454 Climbing Washington Center
Sun 02:07:49 PM 36.6903 -78.8244 56° Northeast 479 551 30,000  Level Washington Center
Sun 02:08:50 PM 36.7692 -78.6853 55° Northeast 489 563 30,000 347 Level Washington Center
Sun 02:09:50 PM 36.8458 -78.5428 56° Northeast 489 563 30,700 800 Climbing Washington Center
Sun 02:10:50 PM 36.9286 -78.3928 55° Northeast 484 557 31,600 661 Climbing Washington Center
Sun 02:11:48 PM 37.0092 -78.2475 55° Northeast 484 557 32,000 202 Climbing Washington Center
Sun 02:12:49 PM 37.0831 -78.1094 56° Northeast 484 557 32,000  Level Washington Center
Sun 02:13:49 PM 37.1589 -77.9658 56° Northeast 484 557 32,000  Level Washington Center
Sun 02:14:50 PM 37.2347 -77.8222 56° Northeast 484 557 32,000  Level Washington Center
Sun 02:15:50 PM 37.3103 -77.6833 56° Northeast 484 557 32,000  Level Washington Center
Sun 02:16:49 PM 37.3858 -77.5417 56° Northeast 484 557 32,000  Level Washington Center
Sun 02:17:50 PM 37.4608 -77.3997 56° Northeast 484 557 32,000  Level Washington Center
Sun 02:18:50 PM 37.5483 -77.2736 49° Northeast 479 551 32,000  Level Washington Center
Sun 02:19:48 PM 37.6497 -77.1708 39° Northeast 461 531 32,000  Level Washington Center
Sun 02:20:49 PM 37.7511 -77.0653 39° Northeast 461 531 32,000  Level Washington Center
Sun 02:21:50 PM 37.8628 -76.9781 32° Northeast 461 531 32,000  Level Washington Center
Sun 02:22:48 PM 37.9742 -76.8983 29° Northeast 461 531 32,000  Level Washington Center
Sun 02:23:49 PM 38.0836 -76.8158 31° Northeast 456 525 32,000  Level Washington Center
Sun 02:24:50 PM 38.1928 -76.7303 32° Northeast 456 525 32,000  Level Washington Center
Sun 02:25:50 PM 38.3019 -76.6475 31° Northeast 443 510 32,000  Level Washington Center
Sun 02:26:49 PM 38.3903 -76.5558 39° Northeast 448 516 32,000  Level Washington Center
Sun 02:27:49 PM 38.4872 -76.4458 42° Northeast 461 531 32,000  Level Washington Center
Sun 02:28:50 PM 38.5878 -76.3381 40° Northeast 461 531 32,000  Level Washington Center
Sun 02:29:48 PM 38.6864 -76.2325 40° Northeast 461 531 32,000  Level Washington Center
Sun 02:30:48 PM 38.7997 -76.1164 39° Northeast 466 536 32,000  Level Washington Center
Sun 02:31:49 PM 38.8981 -76.0158 39° Northeast 466 536 32,000  Level Washington Center
Sun 02:32:49 PM 38.9964 -75.9094 40° Northeast 461 531 32,000  Level Washington Center
Sun 02:33:49 PM 39.0944 -75.8056 39° Northeast 454 522 32,000  Level Washington Center
Sun 02:34:50 PM 39.1906 -75.6986 41° Northeast 454 522 32,000  Level Washington Center
Sun 02:35:50 PM 39.2883 -75.5917 40° Northeast 454 522 32,000  Level Washington Center
Sun 02:36:48 PM 39.3842 -75.4869 40° Northeast 454 522 32,000  Level Washington Center
Sun 02:37:49 PM 39.4819 -75.3819 40° Northeast 454 522 32,000  Level Washington Center
Sun 02:38:50 PM 39.5797 -75.2739 40° Northeast 454 522 32,000 -421 Level Washington Center
Sun 02:40:40 PM 39.7489 -75.0883 40° Northeast 471 542 30,800 -1,151 Descending New York Center
Sun 02:41:42 PM 39.8575 -74.9678 40° Northeast 471 542 28,700 -1,900 Descending New York Center
Sun 02:42:40 PM 39.9444 -74.8700 41° Northeast 463 533 27,000 -857 Descending New York Center
Sun 02:43:41 PM 40.0350 -74.7208 52° Northeast 470 541 27,000  Level New York Center
Sun 02:44:41 PM 40.1125 -74.5814 54° Northeast 470 541 27,000  Level New York Center
Sun 02:45:41 PM 40.1922 -74.4364 54° Northeast 475 547 27,000  Level New York Center
Sun 02:46:42 PM 40.2672 -74.2961 55° Northeast 475 547 27,000  Level New York Center
Sun 02:47:42 PM 40.3422 -74.1586 54° Northeast 475 547 27,000  Level New York Center
Sun 02:48:41 PM 40.4192 -74.0150 55° Northeast 475 547 27,000  Level New York Center
Sun 02:49:41 PM 40.4939 -73.8739 55° Northeast 475 547 27,000 -965 Level New York Center
Sun 02:52:00 PM 40.6439 -73.5861 55° Northeast 468 539 23,800 -1,899 Descending Boston Center
Sun 02:53:00 PM 40.7289 -73.4206 56° Northeast 457 526 20,700 -2,450 Descending Boston Center
Sun 02:54:00 PM 40.8028 -73.2956 52° Northeast 442 509 18,900 -1,200 Descending Boston Center
Sun 02:55:00 PM 40.8869 -73.1978 41° Northeast 420 483 18,300 -850 Descending Boston Center
Sun 02:56:00 PM 40.9708 -73.0997 41° Northeast 408 470 17,200 -1,100 Descending Boston Center
Sun 02:57:00 PM 41.0547 -72.9989 42° Northeast 402 463 16,100 -1,150 Descending Boston Center
Sun 02:58:00 PM 41.1344 -72.9031 42° Northeast 395 455 14,900 -1,838 Descending Boston Center
Sun 02:58:51 PM 41.2139 -72.8153 40° Northeast 387 445 12,700 -2,280 Descending Boston Center
Sun 02:59:40 PM 41.2767 -72.7356 44° Northeast 379 436 11,100 -1,478 Descending Boston Center
Sun 03:00:00 PM 41.3058 -72.7192 23° Northeast 383 441 11,000 -295 Descending Boston Center
Sun 03:00:41 PM 41.3725 -72.7278 354° North 356 410 10,800 -600 Descending Boston Center
Sun 03:01:00 PM 41.3956 -72.7333 350° North 333 383 10,400 -764 Descending Boston Center
Sun 03:01:36 PM 41.4581 -72.7558 345° North 319 367 10,100 -300 Descending Boston Center
Sun 03:02:00 PM 41.4892 -72.7672 345° North 320 368 10,100 -984 Level Boston Center
Sun 03:02:37 PM 41.5350 -72.7811 347° North 284 327 9,100 -1,500 Descending Boston Center
Sun 03:03:00 PM 41.5558 -72.7758 11° North 283 326 8,600 -1,672 Descending Boston Center
Sun 03:03:38 PM 41.6122 -72.7706 North 273 314 7,400 -1,667 Descending Boston Center
Sun 03:04:12 PM 41.6456 -72.7511 24° Northeast 271 312 6,600 -1,574 Descending Boston Center
Sun 03:04:39 PM 41.6811 -72.7292 25° Northeast 268 308 5,800 -1,600 Descending Boston Center
Sun 03:05:12 PM 41.7186 -72.7044 26° Northeast 265 305 5,000 -787 Descending Boston Center
Sun 03:05:40 PM 41.7478 -72.6850 26° Northeast 266 306 5,000  Level Boston Center
Sun 03:06:12 PM 41.7792 -72.6600 31° Northeast 260 299 5,000  Level Boston Center
Sun 03:06:40 PM 41.8083 -72.6239 43° Northeast 277 319 5,000  Level Boston Center
Sun 03:07:12 PM 41.8356 -72.5878 45° Northeast 260 299 5,000  Level Boston Center
Sun 03:07:35 PM 41.8564 -72.5711 31° Northeast 229 264 5,000  Level Boston Center
Sun 03:08:12 PM 41.8897 -72.5656 North 228 262 5,000 -787 Level Boston Center
Sun 03:08:36 PM 41.9189 -72.5628 North 232 267 4,200 -2,000 Descending Boston Center
Sun 03:09:12 PM 41.9606 -72.5544 North 223 257 3,000 -2,000 Descending Boston Center

Login

Don't have an account? Register now (free) for customized features, flight alerts, and more!